Flight Track Log - Related Links

Times and Time Zones

All times are in EDT time to prevent confusion due to time zone crossing. See the PDT4155 flight status page for this flight to view local times or setup timezone preferences in your user account.

Time Position Orientation Groundspeed Altitude Reporting Facility
EDT Latitude Longitude Course Direction KTS MPH feet Rate Location/Type
Sun 07:14:00 AM 42.0427 -75.9254 180° South  Level Estimated
Sun 07:15:00 AM 41.9859 -75.9269 181° South  Level FlightAware Approximate
Sun 07:16:00 AM 41.9291 -75.9285 181° South  Level FlightAware Approximate
Sun 07:17:00 AM 41.8722 -75.9300 181° South  Level FlightAware Approximate
Sun 07:18:00 AM 41.8173 -75.9105 154° Southeast  Level Estimated
Sun 07:19:00 AM 41.7623 -75.8910 160° South  Level Estimated
Sun 07:20:00 AM 41.7074 -75.8716 159° South  Level Estimated
Sun 07:21:00 AM 41.6523 -75.8525 166° South  Level FlightAware Approximate
Sun 07:22:00 AM 41.5973 -75.8335 166° South  Level FlightAware Approximate
Sun 07:23:00 AM 41.5423 -75.8141 153° Southeast  Level Estimated
Sun 07:24:00 AM 41.4874 -75.7948 161° South  Level Estimated
Sun 07:25:00 AM 41.4342 -75.7679 159° South  Level FlightAware Approximate
Sun 07:26:00 AM 41.3811 -75.7410 159° South  Level FlightAware Approximate
Sun 07:27:00 AM 41.3260 -75.7223 162° South  Level Estimated
Sun 07:28:00 AM 41.2725 -75.6967 160° South  Level FlightAware Approximate
Sun 07:29:00 AM 41.2190 -75.6711 160° South  Level FlightAware Approximate
Sun 07:30:00 AM 41.1655 -75.6455 160° South  Level FlightAware Approximate
Sun 07:31:00 AM 41.1120 -75.6200 160° South  Level FlightAware Approximate
Sun 07:32:00 AM 41.0567 -75.6027 159° South  Level Estimated
Sun 07:33:00 AM 41.0013 -75.5855 163° South  Level Estimated
Sun 07:34:00 AM 40.9479 -75.5600 160° South  Level FlightAware Approximate
Sun 07:35:00 AM 40.8944 -75.5345 160° South  Level FlightAware Approximate
Sun 07:36:00 AM 40.8409 -75.5090 160° South  Level FlightAware Approximate
Sun 07:37:00 AM 40.7853 -75.4934 190° South  Level Estimated
Sun 07:38:00 AM 40.7285 -75.4947 181° South  Level FlightAware Approximate
Sun 07:38:49 AM 40.6667 -75.4667 198° South 226 260 8,000  Level Philadelphia TRACON
Sun 07:39:00 AM 40.6716 -75.4960 181° South  Level FlightAware Approximate
Sun 07:40:00 AM 40.6148 -75.4974 181° South  Level FlightAware Approximate
Sun 07:40:01 AM 40.5833 -75.4833 189° South 242 278 7,000  Level Philadelphia TRACON
Sun 07:41:00 AM 40.5611 -75.4786 187° South  Level Estimated
Sun 07:41:01 AM 40.5167 -75.5000 191° South 237 273 7,000  Level Philadelphia TRACON
Sun 07:42:00 AM 40.4979 -75.4935 190° South  Level FlightAware Approximate
Sun 07:42:07 AM 40.4500 -75.5167 191° South 226 260 7,000  Level Philadelphia TRACON
Sun 07:42:49 AM 40.4000 -75.5167 180° South 223 257 7,000  Level Philadelphia TRACON
Sun 07:43:00 AM 40.4367 -75.4686 190° South  Level Estimated
Sun 07:43:49 AM 40.3333 -75.5167 180° South 224 258 7,000  Level Philadelphia TRACON
Sun 07:44:00 AM 40.3758 -75.4952 198° South  Level FlightAware Approximate
Sun 07:44:56 AM 40.2667 -75.5333 191° South 224 258 7,000  Level Philadelphia TRACON
Sun 07:45:50 AM 40.2167 -75.5333 180° South 223 257 7,000 -105 Level Philadelphia TRACON
Sun 07:46:50 AM 40.1500 -75.5500 191° South 222 255 6,800 -500 Descending Philadelphia TRACON
Sun 07:47:50 AM 40.0833 -75.5500 180° South 242 278 6,000 -400 Descending Philadelphia TRACON
Sun 07:48:50 AM 40.0333 -75.5667 194° South 224 258 6,000 -350 Level Philadelphia TRACON
Sun 07:49:50 AM 39.9667 -75.5500 169° South 230 265 5,300 -1,100 Descending Philadelphia TRACON
Sun 07:50:50 AM 39.9000 -75.5167 159° South 236 272 3,800 -1,381 Descending Philadelphia TRACON
Sun 07:51:56 AM 39.8333 -75.5000 169° South 202 232 2,400 -857 Descending Philadelphia TRACON
Sun 07:52:56 AM 39.8333 -75.4333 90° East 211 243 2,000 -550 Descending Philadelphia TRACON
Sun 07:53:56 AM 39.8500 -75.3667 72° East 194 223 1,300 -737 Descending Philadelphia TRACON
Sun 07:54:50 AM 39.8500 -75.3167 90° East 127 146 600 -778 Descending Philadelphia TRACON

Login

Don't have an account? Register now (free) for customized features, flight alerts, and more!